createdAt,value
2017-03-11T00:00:53.683Z,976.18
2017-03-11T00:02:03.381Z,976.14
2017-03-11T00:03:13.360Z,976.2
2017-03-11T00:04:22.927Z,976.22
2017-03-11T00:05:33.286Z,976.17
2017-03-11T00:06:43.234Z,976.2
2017-03-11T00:07:53.159Z,976.18
2017-03-11T00:09:03.035Z,976.17
2017-03-11T00:10:13.352Z,976.15
2017-03-11T00:11:22.474Z,976.14
2017-03-11T00:12:32.418Z,976.12
2017-03-11T00:13:42.383Z,976.1
2017-03-11T00:14:51.944Z,976.07
2017-03-11T00:16:02.272Z,976.09
2017-03-11T00:17:11.833Z,976.07
2017-03-11T00:18:21.799Z,976.03
2017-03-11T00:19:30.555Z,976.08
2017-03-11T00:20:41.434Z,976.02
2017-03-11T00:21:51.315Z,976.02
2017-03-11T00:23:01.631Z,976.05
2017-03-11T00:24:11.986Z,975.96
2017-03-11T00:25:21.556Z,975.97
2017-03-11T00:26:31.489Z,975.96
2017-03-11T00:27:41.047Z,975.96
2017-03-11T00:28:50.609Z,975.95
2017-03-11T00:30:00.579Z,975.97
2017-03-11T00:31:10.123Z,975.97
2017-03-11T00:32:19.295Z,975.97
2017-03-11T00:33:28.856Z,975.97
2017-03-11T00:34:38.838Z,975.98
2017-03-11T00:35:48.781Z,975.99
2017-03-11T00:36:58.352Z,975.95
2017-03-11T00:38:07.934Z,975.96
2017-03-11T00:39:17.872Z,975.95
2017-03-11T00:40:27.383Z,975.92
2017-03-11T00:41:37.328Z,975.96
2017-03-11T00:42:46.496Z,975.92
2017-03-11T00:43:56.438Z,975.91
2017-03-11T00:45:06.401Z,975.92
2017-03-11T00:46:15.913Z,975.9
2017-03-11T00:47:24.710Z,975.9
2017-03-11T00:48:33.896Z,975.91
2017-03-11T00:49:43.432Z,975.93
2017-03-11T00:50:53.317Z,975.94
2017-03-11T00:52:02.736Z,975.93
2017-03-11T00:53:12.303Z,976
2017-03-11T00:54:22.227Z,976.03
2017-03-11T00:55:31.350Z,976.03
2017-03-11T00:56:41.534Z,976.01
2017-03-11T00:57:51.486Z,976.03
2017-03-11T00:59:01.060Z,976
2017-03-11T01:00:10.266Z,976.04
2017-03-11T01:01:19.825Z,975.99
2017-03-11T01:02:29.005Z,976.01
2017-03-11T01:03:38.938Z,975.99
2017-03-11T01:04:48.833Z,975.98
2017-03-11T01:05:58.381Z,975.99
2017-03-11T01:07:07.930Z,975.98
2017-03-11T01:08:17.852Z,976.04
2017-03-11T01:09:28.171Z,975.98
2017-03-11T01:10:37.737Z,976.01
2017-03-11T01:11:47.305Z,976.03
2017-03-11T01:12:56.865Z,976.05
2017-03-11T01:14:06.028Z,976
2017-03-11T01:15:15.971Z,976.03
2017-03-11T01:16:26.289Z,975.96
2017-03-11T01:17:36.231Z,975.98
2017-03-11T01:18:46.138Z,975.94
2017-03-11T01:19:55.686Z,975.94
2017-03-11T01:21:05.645Z,975.93
2017-03-11T01:22:15.979Z,975.89
2017-03-11T01:23:26.160Z,975.88
2017-03-11T01:24:35.694Z,975.86
2017-03-11T01:25:45.728Z,975.87
2017-03-11T01:26:54.514Z,975.83
2017-03-11T01:28:04.784Z,975.79
2017-03-11T01:29:14.338Z,975.76
2017-03-11T01:30:24.269Z,975.79
2017-03-11T01:31:33.058Z,975.73
2017-03-11T01:32:42.691Z,975.71
2017-03-11T01:33:52.229Z,975.64
2017-03-11T01:35:01.768Z,975.61
2017-03-11T01:36:11.719Z,975.59
2017-03-11T01:37:20.903Z,975.5
2017-03-11T01:38:30.461Z,975.48
2017-03-11T01:39:39.890Z,975.36
2017-03-11T01:40:49.472Z,975.37
2017-03-11T01:41:59.017Z,975.38
2017-03-11T01:43:08.180Z,975.32
2017-03-11T01:44:17.352Z,975.38
2017-03-11T01:45:26.921Z,975.38
2017-03-11T01:46:35.695Z,975.34
2017-03-11T01:47:46.228Z,975.35
2017-03-11T01:48:55.430Z,975.34
2017-03-11T01:50:04.614Z,975.33
2017-03-11T01:51:13.392Z,975.35
2017-03-11T01:52:22.932Z,975.34
2017-03-11T01:53:32.093Z,975.3
2017-03-11T01:54:41.602Z,975.39
2017-03-11T01:55:50.772Z,975.37
2017-03-11T01:57:00.692Z,975.35
2017-03-11T01:58:10.589Z,975.36
2017-03-11T01:59:20.911Z,975.32
2017-03-11T02:00:30.456Z,975.34
2017-03-11T02:01:40.012Z,975.33
2017-03-11T02:02:49.585Z,975.3
2017-03-11T02:03:59.074Z,975.28
2017-03-11T02:05:09.045Z,975.35
2017-03-11T02:06:18.210Z,975.31
2017-03-11T02:07:28.087Z,975.34
2017-03-11T02:08:36.850Z,975.35
2017-03-11T02:09:46.398Z,975.32
2017-03-11T02:10:55.956Z,975.32
2017-03-11T02:12:05.908Z,975.26
2017-03-11T02:13:15.872Z,975.25
2017-03-11T02:14:25.420Z,975.2
2017-03-11T02:15:34.992Z,975.18
2017-03-11T02:16:44.562Z,975.12
2017-03-11T02:17:54.169Z,975.14
2017-03-11T02:19:03.706Z,975.1
2017-03-11T02:20:13.240Z,975.04
2017-03-11T02:21:23.182Z,975.05
2017-03-11T02:22:32.740Z,974.99
2017-03-11T02:23:42.696Z,974.94
2017-03-11T02:24:52.253Z,974.91
2017-03-11T02:26:01.768Z,974.9
2017-03-11T02:27:11.696Z,974.9
2017-03-11T02:28:21.563Z,974.93
2017-03-11T02:29:31.479Z,974.94
2017-03-11T02:30:41.031Z,974.91
2017-03-11T02:31:50.590Z,974.89
2017-03-11T02:33:00.157Z,974.96
2017-03-11T02:34:10.099Z,974.93
2017-03-11T02:35:19.658Z,974.97
2017-03-11T02:36:29.608Z,974.95
2017-03-11T02:37:39.556Z,974.95
2017-03-11T02:38:49.901Z,974.93
2017-03-11T02:39:59.060Z,974.89
2017-03-11T02:41:08.947Z,974.88
2017-03-11T02:42:18.504Z,974.84
2017-03-11T02:43:28.599Z,974.78
2017-03-11T02:44:37.795Z,974.84
2017-03-11T02:45:47.761Z,974.82
2017-03-11T02:46:57.713Z,974.8
2017-03-11T02:48:07.310Z,974.86
2017-03-11T02:49:16.501Z,974.86
2017-03-11T02:50:26.020Z,974.91
2017-03-11T02:51:36.391Z,974.9
2017-03-11T02:52:45.550Z,974.87
2017-03-11T02:53:55.101Z,974.85
2017-03-11T02:55:05.374Z,974.84
2017-03-11T02:56:14.945Z,974.82
2017-03-11T02:57:24.899Z,974.76
2017-03-11T02:58:34.823Z,974.76
2017-03-11T02:59:44.328Z,974.76
2017-03-11T03:00:53.902Z,974.72
2017-03-11T03:02:03.085Z,974.7
2017-03-11T03:03:13.392Z,974.69
2017-03-11T03:04:23.277Z,974.62
2017-03-11T03:05:32.453Z,974.63
2017-03-11T03:06:42.013Z,974.56
2017-03-11T03:07:51.568Z,974.64
2017-03-11T03:09:01.504Z,974.6
2017-03-11T03:10:11.068Z,974.61
2017-03-11T03:11:20.617Z,974.57
2017-03-11T03:12:30.892Z,974.6
2017-03-11T03:13:41.043Z,974.63
2017-03-11T03:14:50.621Z,974.64
2017-03-11T03:16:00.182Z,974.64
2017-03-11T03:17:09.382Z,974.59
2017-03-11T03:18:18.934Z,974.61
2017-03-11T03:19:28.139Z,974.62
2017-03-11T03:20:38.090Z,974.65
2017-03-11T03:21:47.641Z,974.67
2017-03-11T03:23:06.842Z,974.67
2017-03-11T03:24:16.428Z,974.64
2017-03-11T03:25:25.619Z,974.68
2017-03-11T03:26:35.604Z,974.69
2017-03-11T03:27:45.163Z,974.67
2017-03-11T03:28:54.770Z,974.65
2017-03-11T03:30:04.327Z,974.66
2017-03-11T03:31:13.038Z,974.66
2017-03-11T03:32:22.576Z,974.62
2017-03-11T03:33:32.067Z,974.62
2017-03-11T03:34:42.035Z,974.6
2017-03-11T03:35:51.599Z,974.63
2017-03-11T03:37:01.570Z,974.64
2017-03-11T03:38:11.140Z,974.66
2017-03-11T03:39:21.101Z,974.67
2017-03-11T03:40:30.663Z,974.71
2017-03-11T03:41:40.221Z,974.72
2017-03-11T03:42:50.189Z,974.68
2017-03-11T03:43:59.741Z,974.65
2017-03-11T03:45:10.108Z,974.65
2017-03-11T03:46:20.070Z,974.67
2017-03-11T03:47:30.010Z,974.64
2017-03-11T03:48:39.556Z,974.66
2017-03-11T03:49:49.430Z,974.64
2017-03-11T03:50:59.703Z,974.62
2017-03-11T03:52:09.280Z,974.61
2017-03-11T03:53:18.482Z,974.66
2017-03-11T03:54:28.032Z,974.67
2017-03-11T03:55:38.001Z,974.68
2017-03-11T03:56:48.714Z,974.69
2017-03-11T03:57:58.644Z,974.67
2017-03-11T03:59:07.777Z,974.67
2017-03-11T04:00:17.348Z,974.71
2017-03-11T04:01:26.737Z,974.63
2017-03-11T04:02:36.696Z,974.65
2017-03-11T04:03:46.620Z,974.62
2017-03-11T04:04:56.921Z,974.64
2017-03-11T04:06:07.239Z,974.7
2017-03-11T04:07:17.190Z,974.66
2017-03-11T04:08:27.911Z,974.62
2017-03-11T04:09:37.072Z,974.59
2017-03-11T04:10:46.973Z,974.6
2017-03-11T04:11:56.928Z,974.61
2017-03-11T04:13:07.651Z,974.6
2017-03-11T04:14:17.208Z,974.58
2017-03-11T04:15:27.529Z,974.57
2017-03-11T04:16:36.701Z,974.6
2017-03-11T04:17:47.035Z,974.58
2017-03-11T04:18:56.590Z,974.57
2017-03-11T04:20:06.134Z,974.59
2017-03-11T04:21:16.257Z,974.53
2017-03-11T04:22:26.221Z,974.52
2017-03-11T04:23:35.778Z,974.54
2017-03-11T04:24:45.265Z,974.54
2017-03-11T04:25:54.779Z,974.57
2017-03-11T04:27:04.737Z,974.56
2017-03-11T04:28:14.283Z,974.54
2017-03-11T04:29:24.256Z,974.55
2017-03-11T04:30:34.221Z,974.52
2017-03-11T04:31:43.777Z,974.53
2017-03-11T04:32:53.727Z,974.52
2017-03-11T04:34:03.294Z,974.51
2017-03-11T04:35:12.845Z,974.53
2017-03-11T04:36:22.019Z,974.52
2017-03-11T04:37:31.789Z,974.54
2017-03-11T04:38:41.759Z,974.53
2017-03-11T04:39:50.932Z,974.57
2017-03-11T04:41:00.130Z,974.51
2017-03-11T04:42:09.309Z,974.51
2017-03-11T04:43:18.863Z,974.53
2017-03-11T04:44:28.363Z,974.46
2017-03-11T04:45:38.328Z,974.47
2017-03-11T04:46:48.265Z,974.45
2017-03-11T04:47:58.620Z,974.45
2017-03-11T04:49:08.608Z,974.44
2017-03-11T04:50:18.209Z,974.42
2017-03-11T04:51:27.784Z,974.43
2017-03-11T04:52:37.551Z,974.38
2017-03-11T04:53:47.518Z,974.39
2017-03-11T04:54:57.459Z,974.38
2017-03-11T04:56:07.015Z,974.39
2017-03-11T04:57:16.581Z,974.34
2017-03-11T04:58:25.766Z,974.35
2017-03-11T04:59:34.535Z,974.31
2017-03-11T05:00:43.268Z,974.26
2017-03-11T05:01:52.452Z,974.29
2017-03-11T05:03:02.412Z,974.24
2017-03-11T05:04:12.385Z,974.25
2017-03-11T05:05:21.944Z,974.28
2017-03-11T05:06:31.455Z,974.28
2017-03-11T05:07:41.009Z,974.3
2017-03-11T05:08:50.799Z,974.31
2017-03-11T05:10:00.742Z,974.28
2017-03-11T05:11:10.676Z,974.28
2017-03-11T05:12:21.031Z,974.3
2017-03-11T05:13:30.969Z,974.27
2017-03-11T05:14:40.922Z,974.27
2017-03-11T05:15:50.478Z,974.27
2017-03-11T05:17:00.044Z,974.25
2017-03-11T05:18:09.979Z,974.26
2017-03-11T05:19:19.545Z,974.25
2017-03-11T05:20:28.726Z,974.24
2017-03-11T05:21:39.028Z,974.25
2017-03-11T05:22:48.612Z,974.24
2017-03-11T05:23:57.783Z,974.2
2017-03-11T05:25:07.672Z,974.2
2017-03-11T05:26:17.570Z,974.18
2017-03-11T05:27:26.352Z,974.23
2017-03-11T05:28:35.482Z,974.24
2017-03-11T05:29:45.424Z,974.24
2017-03-11T05:30:55.775Z,974.26
2017-03-11T05:32:06.130Z,974.28
2017-03-11T05:33:15.672Z,974.25
2017-03-11T05:34:24.825Z,974.28
2017-03-11T05:35:34.361Z,974.27
2017-03-11T05:36:44.340Z,974.29
2017-03-11T05:37:54.309Z,974.26
2017-03-11T05:39:03.868Z,974.23
2017-03-11T05:40:14.232Z,974.22
2017-03-11T05:41:23.727Z,974.21
2017-03-11T05:42:33.289Z,974.22
2017-03-11T05:43:43.215Z,974.22
2017-03-11T05:44:53.499Z,974.22
2017-03-11T05:46:03.442Z,974.2
2017-03-11T05:47:13.417Z,974.21
2017-03-11T05:48:22.610Z,974.18
2017-03-11T05:49:32.183Z,974.21
2017-03-11T05:50:42.150Z,974.18
2017-03-11T05:51:52.899Z,974.18
2017-03-11T05:53:02.465Z,974.18
2017-03-11T05:54:11.980Z,974.19
2017-03-11T05:55:21.537Z,974.18
2017-03-11T05:56:31.029Z,974.15
2017-03-11T05:57:41.404Z,974.15
2017-03-11T05:58:50.246Z,974.14
2017-03-11T06:00:00.182Z,974.13
2017-03-11T06:01:09.361Z,974.13
2017-03-11T06:02:19.294Z,974.11
2017-03-11T06:03:29.486Z,974.12
2017-03-11T06:04:38.275Z,974.13
2017-03-11T06:05:47.060Z,974.12
2017-03-11T06:06:57.329Z,974.16
2017-03-11T06:08:06.881Z,974.15
2017-03-11T06:09:16.045Z,974.16
2017-03-11T06:10:25.248Z,974.1
2017-03-11T06:11:34.831Z,974.13
2017-03-11T06:12:44.386Z,974.11
2017-03-11T06:13:53.582Z,974.08
2017-03-11T06:15:04.305Z,974.05
2017-03-11T06:16:14.254Z,974.08
2017-03-11T06:17:23.430Z,974.06
2017-03-11T06:18:33.390Z,974.07
2017-03-11T06:19:42.550Z,974.11
2017-03-11T06:20:52.110Z,974.08
2017-03-11T06:22:02.841Z,974.05
2017-03-11T06:23:12.407Z,974.04
2017-03-11T06:24:23.115Z,974
2017-03-11T06:25:33.073Z,974.03
2017-03-11T06:26:43.013Z,973.99
2017-03-11T06:27:53.021Z,974.02
2017-03-11T06:29:03.363Z,974.02
2017-03-11T06:30:12.095Z,974
2017-03-11T06:31:21.607Z,974
2017-03-11T06:32:31.112Z,974
2017-03-11T06:33:40.681Z,974.02
2017-03-11T06:34:50.254Z,974.02
2017-03-11T06:35:59.654Z,974.01
2017-03-11T06:37:09.579Z,973.97
2017-03-11T06:38:19.458Z,973.96
2017-03-11T06:39:28.977Z,973.96
2017-03-11T06:40:38.188Z,973.94
2017-03-11T06:41:47.744Z,973.94
2017-03-11T06:42:57.320Z,973.93
2017-03-11T06:44:06.892Z,973.95
2017-03-11T06:45:16.843Z,973.94
2017-03-11T06:46:26.406Z,973.94
2017-03-11T06:47:35.596Z,973.9
2017-03-11T06:48:46.101Z,973.95
2017-03-11T06:49:56.051Z,973.98
2017-03-11T06:51:05.236Z,973.97
2017-03-11T06:52:15.183Z,973.98
2017-03-11T06:53:25.142Z,973.96
2017-03-11T06:54:34.263Z,974.01
2017-03-11T06:55:44.236Z,973.95
2017-03-11T06:56:54.171Z,973.91
2017-03-11T06:58:03.333Z,973.91
2017-03-11T06:59:12.927Z,973.9
2017-03-11T07:00:22.486Z,973.86
2017-03-11T07:01:32.819Z,973.87
2017-03-11T07:02:42.388Z,973.87
2017-03-11T07:03:52.350Z,973.85
2017-03-11T07:05:02.296Z,973.88
2017-03-11T07:06:12.228Z,973.87
2017-03-11T07:07:21.424Z,973.86
2017-03-11T07:08:31.367Z,973.88
2017-03-11T07:09:40.952Z,973.86
2017-03-11T07:10:50.882Z,973.88
2017-03-11T07:12:00.013Z,973.83
2017-03-11T07:13:08.830Z,973.86
2017-03-11T07:14:18.781Z,973.82
2017-03-11T07:15:28.286Z,973.81
2017-03-11T07:16:37.461Z,973.82
2017-03-11T07:17:46.693Z,973.83
2017-03-11T07:18:56.646Z,973.84
2017-03-11T07:20:06.994Z,973.8
2017-03-11T07:21:16.951Z,973.79
2017-03-11T07:22:26.908Z,973.77
2017-03-11T07:23:37.115Z,973.78
2017-03-11T07:24:45.903Z,973.79
2017-03-11T07:25:55.464Z,973.78
2017-03-11T07:27:05.017Z,973.82
2017-03-11T07:28:15.732Z,973.82
2017-03-11T07:29:24.485Z,973.8
2017-03-11T07:30:34.371Z,973.78
2017-03-11T07:31:44.714Z,973.79
2017-03-11T07:32:53.885Z,973.8
2017-03-11T07:34:03.860Z,973.77
2017-03-11T07:35:14.027Z,973.76
2017-03-11T07:36:23.840Z,973.8
2017-03-11T07:37:34.179Z,973.77
2017-03-11T07:38:43.753Z,973.83
2017-03-11T07:39:54.097Z,973.82
2017-03-11T07:41:03.228Z,973.81
2017-03-11T07:42:13.150Z,973.78
2017-03-11T07:43:22.272Z,973.77
2017-03-11T07:44:31.084Z,973.8
2017-03-11T07:45:39.898Z,973.77
2017-03-11T07:46:49.268Z,973.76
2017-03-11T07:47:58.398Z,973.8
2017-03-11T07:49:08.744Z,973.76
2017-03-11T07:50:18.290Z,973.77
2017-03-11T07:51:27.854Z,973.74
2017-03-11T07:52:37.409Z,973.74
2017-03-11T07:53:47.235Z,973.76
2017-03-11T07:54:57.590Z,973.76
2017-03-11T07:56:06.772Z,973.75
2017-03-11T07:57:15.897Z,973.75
2017-03-11T07:58:25.084Z,973.81
2017-03-11T07:59:34.640Z,973.85
2017-03-11T08:00:44.193Z,973.81
2017-03-11T08:01:54.130Z,973.84
2017-03-11T08:03:03.302Z,973.82
2017-03-11T08:04:13.247Z,973.82
2017-03-11T08:05:22.815Z,973.8
2017-03-11T08:06:32.383Z,973.79
2017-03-11T08:07:41.956Z,973.76
2017-03-11T08:08:52.101Z,973.78
2017-03-11T08:10:02.352Z,973.76
2017-03-11T08:11:11.084Z,973.75
2017-03-11T08:12:21.049Z,973.76
2017-03-11T08:13:31.016Z,973.75
2017-03-11T08:14:40.976Z,973.79
2017-03-11T08:15:50.940Z,973.75
2017-03-11T08:17:00.475Z,973.76
2017-03-11T08:18:09.682Z,973.75
2017-03-11T08:19:19.490Z,973.75
2017-03-11T08:20:28.309Z,973.78
2017-03-11T08:21:37.826Z,973.76
2017-03-11T08:22:47.016Z,973.72
2017-03-11T08:23:56.997Z,973.77
2017-03-11T08:25:06.949Z,973.75
2017-03-11T08:26:16.509Z,973.75
2017-03-11T08:27:26.086Z,973.79
2017-03-11T08:28:35.659Z,973.72
2017-03-11T08:29:45.630Z,973.7
2017-03-11T08:30:54.843Z,973.67
2017-03-11T08:32:04.785Z,973.68
2017-03-11T08:33:13.910Z,973.7
2017-03-11T08:34:23.470Z,973.66
2017-03-11T08:35:34.123Z,973.68
2017-03-11T08:36:43.661Z,973.66
2017-03-11T08:37:54.000Z,973.67
2017-03-11T08:39:03.947Z,973.64
2017-03-11T08:40:13.840Z,973.64
2017-03-11T08:41:23.034Z,973.71
2017-03-11T08:42:33.002Z,973.7
2017-03-11T08:43:43.369Z,973.71
2017-03-11T08:44:53.327Z,973.69
2017-03-11T08:46:02.892Z,973.68
2017-03-11T08:47:12.449Z,973.67
2017-03-11T08:48:22.403Z,973.72
2017-03-11T08:49:31.979Z,973.71
2017-03-11T08:50:41.951Z,973.7
2017-03-11T08:51:51.513Z,973.7
2017-03-11T08:53:01.084Z,973.66
2017-03-11T08:54:11.060Z,973.7
2017-03-11T08:55:20.639Z,973.67
2017-03-11T08:56:30.579Z,973.69
2017-03-11T08:57:40.161Z,973.68
2017-03-11T08:58:49.344Z,973.69
2017-03-11T08:59:59.283Z,973.67
2017-03-11T09:01:09.237Z,973.72
2017-03-11T09:02:18.758Z,973.74
2017-03-11T09:03:28.337Z,973.79
2017-03-11T09:04:37.540Z,973.81
2017-03-11T09:05:47.129Z,973.76
2017-03-11T09:06:56.693Z,973.75
2017-03-11T09:08:06.670Z,973.73
2017-03-11T09:09:15.460Z,973.73
2017-03-11T09:10:25.672Z,973.76
2017-03-11T09:11:34.831Z,973.73
2017-03-11T09:12:44.378Z,973.67
2017-03-11T09:13:53.938Z,973.85
2017-03-11T09:15:03.502Z,973.88
2017-03-11T09:16:13.385Z,973.74
2017-03-11T09:17:23.342Z,973.76
2017-03-11T09:18:32.513Z,973.76
2017-03-11T09:19:42.023Z,973.68
2017-03-11T09:20:51.887Z,973.67
2017-03-11T09:22:02.271Z,973.7
2017-03-11T09:23:11.834Z,973.66
2017-03-11T09:24:21.446Z,973.66
2017-03-11T09:25:30.999Z,973.66
2017-03-11T09:26:40.570Z,973.65
2017-03-11T09:27:50.920Z,973.66
2017-03-11T09:29:00.500Z,973.64
2017-03-11T09:30:10.049Z,973.67
2017-03-11T09:31:19.511Z,973.66
2017-03-11T09:32:29.068Z,973.7
2017-03-11T09:33:38.644Z,973.69
2017-03-11T09:34:49.111Z,973.65
2017-03-11T09:35:59.052Z,973.61
2017-03-11T09:37:08.538Z,973.63
2017-03-11T09:38:17.664Z,973.63
2017-03-11T09:39:26.854Z,973.55
2017-03-11T09:40:37.009Z,973.6
2017-03-11T09:41:46.513Z,973.57
2017-03-11T09:42:56.702Z,973.66
2017-03-11T09:44:06.285Z,973.57
2017-03-11T09:45:16.277Z,973.49
2017-03-11T09:46:25.449Z,973.46
2017-03-11T09:47:34.640Z,973.46
2017-03-11T09:48:43.802Z,973.46
2017-03-11T09:49:53.743Z,973.49
2017-03-11T09:51:03.645Z,973.5
2017-03-11T09:52:13.164Z,973.54
2017-03-11T09:53:22.368Z,973.51
2017-03-11T09:54:31.933Z,973.52
2017-03-11T09:55:41.128Z,973.49
2017-03-11T09:56:51.437Z,973.43
2017-03-11T09:58:00.658Z,973.47
2017-03-11T09:59:10.199Z,973.54
2017-03-11T10:00:19.707Z,973.62
2017-03-11T10:01:29.305Z,973.5
2017-03-11T10:02:38.874Z,973.52
2017-03-11T10:03:48.703Z,973.53
2017-03-11T10:04:57.503Z,973.51
2017-03-11T10:06:07.464Z,973.5
2017-03-11T10:07:16.640Z,973.44
2017-03-11T10:08:26.196Z,973.49
2017-03-11T10:09:36.135Z,973.49
2017-03-11T10:10:44.876Z,973.47
2017-03-11T10:11:55.210Z,973.44
2017-03-11T10:13:05.149Z,973.55
2017-03-11T10:14:15.117Z,973.39
2017-03-11T10:15:25.459Z,973.39
2017-03-11T10:16:34.256Z,973.35
2017-03-11T10:17:43.853Z,973.33
2017-03-11T10:18:53.792Z,973.34
2017-03-11T10:20:03.952Z,973.34
2017-03-11T10:21:13.914Z,973.37
2017-03-11T10:22:23.107Z,973.29
2017-03-11T10:23:33.837Z,973.3
2017-03-11T10:24:44.194Z,973.29
2017-03-11T10:25:54.144Z,973.22
2017-03-11T10:27:03.715Z,973.3
2017-03-11T10:28:13.658Z,973.21
2017-03-11T10:29:23.236Z,973.2
2017-03-11T10:30:32.661Z,973.21
2017-03-11T10:31:42.610Z,973.27
2017-03-11T10:32:51.401Z,973.24
2017-03-11T10:34:00.620Z,973.21
2017-03-11T10:35:10.568Z,973.22
2017-03-11T10:36:20.528Z,973.21
2017-03-11T10:37:30.501Z,973.17
2017-03-11T10:38:39.292Z,973.17
2017-03-11T10:39:49.222Z,973.19
2017-03-11T10:40:58.381Z,973.15
2017-03-11T10:42:07.516Z,973.16
2017-03-11T10:43:17.487Z,973.12
2017-03-11T10:44:27.423Z,973.12
2017-03-11T10:45:37.325Z,973.12
2017-03-11T10:46:46.492Z,973.1
2017-03-11T10:47:55.685Z,973.1
2017-03-11T10:49:05.262Z,973.09
2017-03-11T10:50:14.633Z,973.04
2017-03-11T10:51:23.437Z,973.06
2017-03-11T10:52:32.662Z,973.05
2017-03-11T10:53:43.001Z,973
2017-03-11T10:54:52.965Z,973.03
2017-03-11T10:56:02.520Z,973.04
2017-03-11T10:57:12.083Z,973.03
2017-03-11T10:58:20.879Z,973.04
2017-03-11T10:59:31.228Z,973.04
2017-03-11T11:00:40.671Z,972.97
2017-03-11T11:01:49.865Z,972.96
2017-03-11T11:02:59.434Z,972.94
2017-03-11T11:04:09.004Z,972.91
2017-03-11T11:05:18.951Z,972.95
2017-03-11T11:06:29.285Z,972.93
2017-03-11T11:07:38.871Z,972.92
2017-03-11T11:08:48.415Z,972.92
2017-03-11T11:09:58.752Z,972.9
2017-03-11T11:11:08.698Z,972.95
2017-03-11T11:12:19.019Z,972.97
2017-03-11T11:13:28.582Z,972.98
2017-03-11T11:14:38.556Z,973
2017-03-11T11:15:48.535Z,972.96
2017-03-11T11:16:58.899Z,973
2017-03-11T11:18:09.282Z,972.96
2017-03-11T11:19:18.858Z,972.95
2017-03-11T11:20:27.980Z,972.97
2017-03-11T11:21:38.215Z,972.95
2017-03-11T11:22:47.788Z,972.96
2017-03-11T11:23:57.754Z,972.95
2017-03-11T11:25:07.405Z,972.94
2017-03-11T11:26:16.639Z,972.93
2017-03-11T11:27:27.353Z,972.89
2017-03-11T11:28:37.700Z,972.85
2017-03-11T11:29:47.638Z,972.86
2017-03-11T11:30:57.541Z,972.82
2017-03-11T11:32:07.489Z,972.82
2017-03-11T11:33:17.429Z,972.81
2017-03-11T11:34:27.752Z,972.77
2017-03-11T11:35:38.096Z,972.8
2017-03-11T11:36:48.048Z,972.74
2017-03-11T11:37:58.020Z,972.77
2017-03-11T11:39:07.593Z,972.76
2017-03-11T11:40:17.395Z,972.75
2017-03-11T11:41:26.608Z,972.75
2017-03-11T11:42:36.027Z,972.73
2017-03-11T11:43:45.996Z,972.65
2017-03-11T11:44:55.543Z,972.65
2017-03-11T11:46:04.738Z,972.67
2017-03-11T11:47:13.540Z,972.67
2017-03-11T11:48:23.879Z,972.63
2017-03-11T11:49:33.411Z,972.58
2017-03-11T11:50:42.595Z,972.62
2017-03-11T11:51:53.319Z,972.56
2017-03-11T11:53:03.448Z,972.56
2017-03-11T11:54:13.365Z,972.57
2017-03-11T11:55:22.550Z,972.57
2017-03-11T11:56:32.212Z,972.53
2017-03-11T11:57:42.125Z,972.59
2017-03-11T11:58:52.037Z,972.58
2017-03-11T12:00:02.382Z,972.54
2017-03-11T12:01:12.652Z,972.53
2017-03-11T12:02:22.598Z,972.49
2017-03-11T12:03:32.166Z,972.48
2017-03-11T12:04:40.963Z,972.5
2017-03-11T12:05:50.535Z,972.45
2017-03-11T12:07:00.490Z,972.36
2017-03-11T12:08:10.045Z,972.38
2017-03-11T12:09:18.839Z,972.38
2017-03-11T12:10:28.833Z,972.31
2017-03-11T12:11:37.998Z,972.32
2017-03-11T12:12:47.538Z,972.27
2017-03-11T12:13:57.471Z,972.26
2017-03-11T12:15:07.063Z,972.25
2017-03-11T12:16:15.832Z,972.23
2017-03-11T12:17:25.730Z,972.19
2017-03-11T12:18:34.515Z,972.2
2017-03-11T12:19:44.457Z,972.21
2017-03-11T12:20:53.206Z,972.2
2017-03-11T12:22:02.427Z,972.14
2017-03-11T12:23:11.578Z,972.16
2017-03-11T12:24:21.547Z,972.1
2017-03-11T12:25:31.874Z,972.15
2017-03-11T12:26:42.215Z,972.13
2017-03-11T12:27:52.198Z,972.15
2017-03-11T12:29:01.763Z,972.16
2017-03-11T12:30:11.338Z,972.14
2017-03-11T12:31:21.297Z,972.13
2017-03-11T12:32:30.904Z,972.13
2017-03-11T12:33:40.841Z,972.11
2017-03-11T12:34:50.416Z,972.09
2017-03-11T12:36:00.221Z,972.11
2017-03-11T12:37:09.779Z,972.06
2017-03-11T12:38:19.683Z,972.09
2017-03-11T12:39:28.855Z,971.99
2017-03-11T12:40:38.758Z,972.01
2017-03-11T12:41:48.342Z,972.03
2017-03-11T12:42:57.516Z,971.99
2017-03-11T12:44:07.087Z,972
2017-03-11T12:45:16.236Z,972.01
2017-03-11T12:46:25.781Z,971.99
2017-03-11T12:47:35.284Z,971.94
2017-03-11T12:48:44.873Z,971.9
2017-03-11T12:49:54.016Z,971.96
2017-03-11T12:51:04.348Z,971.9
2017-03-11T12:52:14.665Z,971.89
2017-03-11T12:53:23.827Z,971.9
2017-03-11T12:54:33.781Z,971.91
2017-03-11T12:55:43.737Z,971.89
2017-03-11T12:56:53.544Z,971.86
2017-03-11T12:58:03.497Z,971.89
2017-03-11T12:59:12.260Z,971.92
2017-03-11T13:00:22.205Z,971.87
2017-03-11T13:01:32.526Z,971.86
2017-03-11T13:02:41.705Z,971.89
2017-03-11T13:03:51.601Z,971.89
2017-03-11T13:05:00.393Z,971.88
2017-03-11T13:06:09.950Z,971.87
2017-03-11T13:07:19.771Z,971.84
2017-03-11T13:08:30.496Z,971.81
2017-03-11T13:09:40.821Z,971.84
2017-03-11T13:10:50.771Z,971.83
2017-03-11T13:11:59.562Z,971.81
2017-03-11T13:13:09.152Z,971.82
2017-03-11T13:14:18.327Z,971.81
2017-03-11T13:15:28.290Z,971.75
2017-03-11T13:16:38.162Z,971.77
2017-03-11T13:17:48.068Z,971.8
2017-03-11T13:18:56.854Z,971.8
2017-03-11T13:20:07.167Z,971.8
2017-03-11T13:21:16.728Z,971.76
2017-03-11T13:22:25.903Z,971.78
2017-03-11T13:23:35.293Z,971.8
2017-03-11T13:24:44.018Z,971.77
2017-03-11T13:25:54.062Z,971.74
2017-03-11T13:27:04.040Z,971.72
2017-03-11T13:28:13.568Z,971.74
2017-03-11T13:29:23.157Z,971.7
2017-03-11T13:30:33.095Z,971.73
2017-03-11T13:31:43.371Z,971.69
2017-03-11T13:32:52.534Z,971.72
2017-03-11T13:34:02.657Z,971.71
2017-03-11T13:35:12.220Z,971.65
2017-03-11T13:36:21.806Z,971.64
2017-03-11T13:37:31.780Z,971.68
2017-03-11T13:38:41.348Z,971.62
2017-03-11T13:39:50.515Z,971.63
2017-03-11T13:41:00.005Z,971.59
2017-03-11T13:42:09.968Z,971.57
2017-03-11T13:43:19.572Z,971.54
2017-03-11T13:44:29.109Z,971.57
2017-03-11T13:45:38.614Z,971.54
2017-03-11T13:46:48.890Z,971.55
2017-03-11T13:47:59.600Z,971.53
2017-03-11T13:49:09.538Z,971.48
2017-03-11T13:50:18.669Z,971.48
2017-03-11T13:51:28.256Z,971.45
2017-03-11T13:52:37.444Z,971.44
2017-03-11T13:53:47.019Z,971.43
2017-03-11T13:54:57.364Z,971.51
2017-03-11T13:56:07.324Z,971.47
2017-03-11T13:57:16.920Z,971.5
2017-03-11T13:58:26.364Z,971.46
2017-03-11T13:59:35.914Z,971.52
2017-03-11T14:00:45.890Z,971.46
2017-03-11T14:01:55.166Z,971.48
2017-03-11T14:03:04.350Z,971.44
2017-03-11T14:04:14.293Z,971.45
2017-03-11T14:05:23.488Z,971.36
2017-03-11T14:06:33.058Z,971.42
2017-03-11T14:07:42.187Z,971.38
2017-03-11T14:08:51.701Z,971.36
2017-03-11T14:10:00.737Z,971.42
2017-03-11T14:11:10.321Z,971.36
2017-03-11T14:12:19.909Z,971.35
2017-03-11T14:13:30.660Z,971.32
2017-03-11T14:14:40.603Z,971.31
2017-03-11T14:15:50.156Z,971.25
2017-03-11T14:16:59.724Z,971.22
2017-03-11T14:18:10.064Z,971.22
2017-03-11T14:19:20.798Z,971.23
2017-03-11T14:20:31.375Z,971.19
2017-03-11T14:21:40.932Z,971.19
2017-03-11T14:22:50.441Z,971.24
2017-03-11T14:23:59.993Z,971.19
2017-03-11T14:25:09.949Z,971.14
2017-03-11T14:26:20.266Z,971.18
2017-03-11T14:27:30.164Z,971.2
2017-03-11T14:28:40.113Z,971.19
2017-03-11T14:29:49.278Z,971.11
2017-03-11T14:30:59.625Z,971.17
2017-03-11T14:32:08.798Z,971.14
2017-03-11T14:33:18.734Z,971.09